sensor_id;sensor_type;location;lat;lon;timestamp;temperature;humidity
67893;DHT22;54688;52.376;16.744;2022-07-18T00:03:00;11.5;66.8
67893;DHT22;54688;52.376;16.744;2022-07-18T00:06:01;11.5;67
67893;DHT22;54688;52.376;16.744;2022-07-18T00:09:04;11.4;66.7
67893;DHT22;54688;52.376;16.744;2022-07-18T00:12:08;11.4;66.8
67893;DHT22;54688;52.376;16.744;2022-07-18T00:15:11;11.4;66.9
67893;DHT22;54688;52.376;16.744;2022-07-18T00:18:13;11.4;67
67893;DHT22;54688;52.376;16.744;2022-07-18T00:21:15;11.3;66.9
67893;DHT22;54688;52.376;16.744;2022-07-18T00:24:18;11.3;67.1
67893;DHT22;54688;52.376;16.744;2022-07-18T00:27:21;11.3;67.1
67893;DHT22;54688;52.376;16.744;2022-07-18T00:30:23;11.3;67.3
67893;DHT22;54688;52.376;16.744;2022-07-18T00:33:25;11.3;67.4
67893;DHT22;54688;52.376;16.744;2022-07-18T00:39:26;11.3;67.3
67893;DHT22;54688;52.376;16.744;2022-07-18T00:42:28;11.2;67.8
67893;DHT22;54688;52.376;16.744;2022-07-18T00:45:30;11.2;68.1
67893;DHT22;54688;52.376;16.744;2022-07-18T00:48:32;11.3;68
67893;DHT22;54688;52.376;16.744;2022-07-18T00:51:34;11.2;67.9
67893;DHT22;54688;52.376;16.744;2022-07-18T00:54:36;11.2;67.9
67893;DHT22;54688;52.376;16.744;2022-07-18T00:57:37;11.2;68.2
67893;DHT22;54688;52.376;16.744;2022-07-18T01:00:41;11.1;68.6
67893;DHT22;54688;52.376;16.744;2022-07-18T01:03:44;11.1;68.4
67893;DHT22;54688;52.376;16.744;2022-07-18T01:06:47;11.1;68.4
67893;DHT22;54688;52.376;16.744;2022-07-18T01:09:51;11.1;68.5
67893;DHT22;54688;52.376;16.744;2022-07-18T01:12:54;11.1;68.7
67893;DHT22;54688;52.376;16.744;2022-07-18T01:15:56;11;68.9
67893;DHT22;54688;52.376;16.744;2022-07-18T01:18:58;11;69
67893;DHT22;54688;52.376;16.744;2022-07-18T01:22:00;10.9;68.9
67893;DHT22;54688;52.376;16.744;2022-07-18T01:25:02;10.9;68.9
67893;DHT22;54688;52.376;16.744;2022-07-18T01:28:05;10.9;69.1
67893;DHT22;54688;52.376;16.744;2022-07-18T01:31:07;10.8;69.1
67893;DHT22;54688;52.376;16.744;2022-07-18T01:34:10;10.8;69.5
67893;DHT22;54688;52.376;16.744;2022-07-18T01:37:11;10.7;69.9
67893;DHT22;54688;52.376;16.744;2022-07-18T01:40:13;10.7;69.9
67893;DHT22;54688;52.376;16.744;2022-07-18T01:43:16;10.7;70.6
67893;DHT22;54688;52.376;16.744;2022-07-18T01:46:17;10.6;69.9
67893;DHT22;54688;52.376;16.744;2022-07-18T01:49:20;10.6;70
67893;DHT22;54688;52.376;16.744;2022-07-18T01:52:22;10.6;70.1
67893;DHT22;54688;52.376;16.744;2022-07-18T01:55:23;10.6;69.8
67893;DHT22;54688;52.376;16.744;2022-07-18T01:58:25;10.5;70.3
67893;DHT22;54688;52.376;16.744;2022-07-18T02:01:27;10.5;70.3
67893;DHT22;54688;52.376;16.744;2022-07-18T02:04:29;10.4;70.6
67893;DHT22;54688;52.376;16.744;2022-07-18T02:07:32;10.4;70.5
67893;DHT22;54688;52.376;16.744;2022-07-18T02:10:36;10.4;70.6
67893;DHT22;54688;52.376;16.744;2022-07-18T02:13:40;10.4;70.8
67893;DHT22;54688;52.376;16.744;2022-07-18T02:16:43;10.4;70.9
67893;DHT22;54688;52.376;16.744;2022-07-18T02:19:44;10.3;70.7
67893;DHT22;54688;52.376;16.744;2022-07-18T02:22:47;10.3;70.7
67893;DHT22;54688;52.376;16.744;2022-07-18T02:25:49;10.2;70.7
67893;DHT22;54688;52.376;16.744;2022-07-18T02:28:51;10.2;71.2
67893;DHT22;54688;52.376;16.744;2022-07-18T02:31:53;10.2;71.3
67893;DHT22;54688;52.376;16.744;2022-07-18T02:34:54;10.2;71.2
67893;DHT22;54688;52.376;16.744;2022-07-18T02:37:56;10.1;71.5
67893;DHT22;54688;52.376;16.744;2022-07-18T02:40:58;10.1;72
67893;DHT22;54688;52.376;16.744;2022-07-18T02:44:00;10;72.3
67893;DHT22;54688;52.376;16.744;2022-07-18T02:47:03;10.1;72.1
67893;DHT22;54688;52.376;16.744;2022-07-18T02:50:06;10;72.1
67893;DHT22;54688;52.376;16.744;2022-07-18T02:53:09;10;72.5
67893;DHT22;54688;52.376;16.744;2022-07-18T02:56:11;10;72.5
67893;DHT22;54688;52.376;16.744;2022-07-18T02:59:14;10;72.8
67893;DHT22;54688;52.376;16.744;2022-07-18T03:02:16;10;73
67893;DHT22;54688;52.376;16.744;2022-07-18T03:05:18;10;73.2
67893;DHT22;54688;52.376;16.744;2022-07-18T03:08:20;10;73.3
67893;DHT22;54688;52.376;16.744;2022-07-18T03:11:22;9.9;73.2
67893;DHT22;54688;52.376;16.744;2022-07-18T03:14:25;9.9;73
67893;DHT22;54688;52.376;16.744;2022-07-18T03:17:28;9.9;73
67893;DHT22;54688;52.376;16.744;2022-07-18T03:20:30;9.9;73.2
67893;DHT22;54688;52.376;16.744;2022-07-18T03:23:33;9.8;73.4
67893;DHT22;54688;52.376;16.744;2022-07-18T03:26:35;9.8;73.2
67893;DHT22;54688;52.376;16.744;2022-07-18T03:29:36;9.9;73.9
67893;DHT22;54688;52.376;16.744;2022-07-18T03:32:38;9.9;73.9
67893;DHT22;54688;52.376;16.744;2022-07-18T03:35:41;9.9;73.6
67893;DHT22;54688;52.376;16.744;2022-07-18T03:38:43;9.9;73.5
67893;DHT22;54688;52.376;16.744;2022-07-18T03:41:45;9.9;73.6
67893;DHT22;54688;52.376;16.744;2022-07-18T03:44:46;9.9;73.7
67893;DHT22;54688;52.376;16.744;2022-07-18T03:47:48;9.9;74.3
67893;DHT22;54688;52.376;16.744;2022-07-18T03:50:51;9.9;74.4
67893;DHT22;54688;52.376;16.744;2022-07-18T03:53:54;9.9;74.3
67893;DHT22;54688;52.376;16.744;2022-07-18T03:56:56;10;74.3
67893;DHT22;54688;52.376;16.744;2022-07-18T03:59:59;10.1;74.2
67893;DHT22;54688;52.376;16.744;2022-07-18T04:03:01;10.1;73.8
67893;DHT22;54688;52.376;16.744;2022-07-18T04:06:03;10.2;73.7
67893;DHT22;54688;52.376;16.744;2022-07-18T04:09:05;10.2;73.6
67893;DHT22;54688;52.376;16.744;2022-07-18T04:12:07;10.3;73.7
67893;DHT22;54688;52.376;16.744;2022-07-18T04:15:11;10.4;73.4
67893;DHT22;54688;52.376;16.744;2022-07-18T04:18:12;10.5;72.7
67893;DHT22;54688;52.376;16.744;2022-07-18T04:21:15;10.5;72.3
67893;DHT22;54688;52.376;16.744;2022-07-18T04:24:17;10.7;72.3
67893;DHT22;54688;52.376;16.744;2022-07-18T04:27:19;10.8;71.8
67893;DHT22;54688;52.376;16.744;2022-07-18T04:30:22;10.9;71.4
67893;DHT22;54688;52.376;16.744;2022-07-18T04:33:26;10.9;71
67893;DHT22;54688;52.376;16.744;2022-07-18T04:36:28;11;71
67893;DHT22;54688;52.376;16.744;2022-07-18T04:39:31;11.1;71.2
67893;DHT22;54688;52.376;16.744;2022-07-18T04:42:33;11.3;71.4
67893;DHT22;54688;52.376;16.744;2022-07-18T04:45:36;11.4;71.5
67893;DHT22;54688;52.376;16.744;2022-07-18T04:48:38;11.6;71.4
67893;DHT22;54688;52.376;16.744;2022-07-18T04:51:40;11.9;71
67893;DHT22;54688;52.376;16.744;2022-07-18T04:54:42;12.1;70.1
67893;DHT22;54688;52.376;16.744;2022-07-18T05:00:44;12.6;68.1
67893;DHT22;54688;52.376;16.744;2022-07-18T05:03:46;12.8;66.9
67893;DHT22;54688;52.376;16.744;2022-07-18T05:06:49;12.9;66.3
67893;DHT22;54688;52.376;16.744;2022-07-18T05:09:51;13.1;66.2
67893;DHT22;54688;52.376;16.744;2022-07-18T05:12:53;13.3;65.7
67893;DHT22;54688;52.376;16.744;2022-07-18T05:15:56;13.5;65.5
67893;DHT22;54688;52.376;16.744;2022-07-18T05:18:59;13.6;65.3
67893;DHT22;54688;52.376;16.744;2022-07-18T05:22:01;13.8;65.1
67893;DHT22;54688;52.376;16.744;2022-07-18T05:25:05;13.9;64.5
67893;DHT22;54688;52.376;16.744;2022-07-18T05:28:08;14;64.3
67893;DHT22;54688;52.376;16.744;2022-07-18T05:31:11;14.1;64
67893;DHT22;54688;52.376;16.744;2022-07-18T05:37:13;14.4;62.5
67893;DHT22;54688;52.376;16.744;2022-07-18T05:40:15;14.5;62
67893;DHT22;54688;52.376;16.744;2022-07-18T05:43:18;14.6;61.6
67893;DHT22;54688;52.376;16.744;2022-07-18T05:46:21;14.7;61.3
67893;DHT22;54688;52.376;16.744;2022-07-18T05:49:23;14.8;61.1
67893;DHT22;54688;52.376;16.744;2022-07-18T05:52:26;14.9;60.4
67893;DHT22;54688;52.376;16.744;2022-07-18T05:55:28;15;60
67893;DHT22;54688;52.376;16.744;2022-07-18T05:58:31;15.1;60.1
67893;DHT22;54688;52.376;16.744;2022-07-18T06:01:32;15.2;60.3
67893;DHT22;54688;52.376;16.744;2022-07-18T06:04:35;15.3;59.8
67893;DHT22;54688;52.376;16.744;2022-07-18T06:07:37;15.5;59.5
67893;DHT22;54688;52.376;16.744;2022-07-18T06:10:39;15.6;58.7
67893;DHT22;54688;52.376;16.744;2022-07-18T06:13:42;15.7;57.5
67893;DHT22;54688;52.376;16.744;2022-07-18T06:16:46;15.8;56.2
67893;DHT22;54688;52.376;16.744;2022-07-18T06:19:48;16;55.2
67893;DHT22;54688;52.376;16.744;2022-07-18T06:22:51;16.1;55.4
67893;DHT22;54688;52.376;16.744;2022-07-18T06:25:53;16.3;54.8
67893;DHT22;54688;52.376;16.744;2022-07-18T06:31:55;16.7;52.6
67893;DHT22;54688;52.376;16.744;2022-07-18T06:34:57;16.9;51.9
67893;DHT22;54688;52.376;16.744;2022-07-18T06:38:00;17;51.4
67893;DHT22;54688;52.376;16.744;2022-07-18T06:41:02;17.1;49.6
67893;DHT22;54688;52.376;16.744;2022-07-18T06:44:05;17.2;49.9
67893;DHT22;54688;52.376;16.744;2022-07-18T06:47:07;17.3;49.8
67893;DHT22;54688;52.376;16.744;2022-07-18T06:50:10;17.5;49.9
67893;DHT22;54688;52.376;16.744;2022-07-18T06:53:13;17.6;48.8
67893;DHT22;54688;52.376;16.744;2022-07-18T06:56:16;17.6;48.2
67893;DHT22;54688;52.376;16.744;2022-07-18T06:59:18;17.6;47.7
67893;DHT22;54688;52.376;16.744;2022-07-18T07:02:21;17.6;47.8
67893;DHT22;54688;52.376;16.744;2022-07-18T07:05:23;17.6;48.5
67893;DHT22;54688;52.376;16.744;2022-07-18T07:08:25;17.6;48.5
67893;DHT22;54688;52.376;16.744;2022-07-18T07:11:28;17.6;48.5
67893;DHT22;54688;52.376;16.744;2022-07-18T07:14:30;17.6;49.1
67893;DHT22;54688;52.376;16.744;2022-07-18T07:17:34;17.6;45.8
67893;DHT22;54688;52.376;16.744;2022-07-18T07:20:37;17.7;45.2
67893;DHT22;54688;52.376;16.744;2022-07-18T07:23:40;17.8;45.6
67893;DHT22;54688;52.376;16.744;2022-07-18T07:26:42;17.8;44.2
67893;DHT22;54688;52.376;16.744;2022-07-18T07:29:45;17.8;44.9
67893;DHT22;54688;52.376;16.744;2022-07-18T07:32:47;17.9;44.2
67893;DHT22;54688;52.376;16.744;2022-07-18T07:35:50;18;44
67893;DHT22;54688;52.376;16.744;2022-07-18T07:38:52;18.1;42.7
67893;DHT22;54688;52.376;16.744;2022-07-18T07:41:55;18.2;43
67893;DHT22;54688;52.376;16.744;2022-07-18T07:44:57;18.3;43.2
67893;DHT22;54688;52.376;16.744;2022-07-18T07:48:00;18.3;42.5
67893;DHT22;54688;52.376;16.744;2022-07-18T07:51:02;18.5;41.9
67893;DHT22;54688;52.376;16.744;2022-07-18T07:54:05;18.5;42.2
67893;DHT22;54688;52.376;16.744;2022-07-18T07:57:07;18.5;41.3
67893;DHT22;54688;52.376;16.744;2022-07-18T08:00:10;18.7;42.3
67893;DHT22;54688;52.376;16.744;2022-07-18T08:03:13;18.7;41.7
67893;DHT22;54688;52.376;16.744;2022-07-18T08:06:17;18.8;41.7
67893;DHT22;54688;52.376;16.744;2022-07-18T08:09:20;18.9;40.8
67893;DHT22;54688;52.376;16.744;2022-07-18T08:12:22;19;40.6
67893;DHT22;54688;52.376;16.744;2022-07-18T08:15:25;19.1;40.4
67893;DHT22;54688;52.376;16.744;2022-07-18T08:18:28;19.2;40.5
67893;DHT22;54688;52.376;16.744;2022-07-18T08:21:31;19.3;40.3
67893;DHT22;54688;52.376;16.744;2022-07-18T08:24:33;19.3;40.3
67893;DHT22;54688;52.376;16.744;2022-07-18T08:27:36;19.4;40.2
67893;DHT22;54688;52.376;16.744;2022-07-18T08:30:39;19.4;40.3
67893;DHT22;54688;52.376;16.744;2022-07-18T08:33:49;19.5;39.8
67893;DHT22;54688;52.376;16.744;2022-07-18T08:36:52;19.5;40.5
67893;DHT22;54688;52.376;16.744;2022-07-18T08:39:54;19.6;40.3
67893;DHT22;54688;52.376;16.744;2022-07-18T08:42:57;19.7;40.8
67893;DHT22;54688;52.376;16.744;2022-07-18T08:46:01;19.8;39.9
67893;DHT22;54688;52.376;16.744;2022-07-18T08:49:06;19.9;40
67893;DHT22;54688;52.376;16.744;2022-07-18T08:52:08;20;40.3
67893;DHT22;54688;52.376;16.744;2022-07-18T08:55:10;20.1;39.1
67893;DHT22;54688;52.376;16.744;2022-07-18T08:58:13;20.2;38.8
67893;DHT22;54688;52.376;16.744;2022-07-18T09:01:15;20.3;38.1
67893;DHT22;54688;52.376;16.744;2022-07-18T09:04:30;20.4;38.3
67893;DHT22;54688;52.376;16.744;2022-07-18T09:07:34;20.5;38.7
67893;DHT22;54688;52.376;16.744;2022-07-18T09:10:47;20.6;37.8
67893;DHT22;54688;52.376;16.744;2022-07-18T09:13:50;20.6;38.7
67893;DHT22;54688;52.376;16.744;2022-07-18T09:16:58;20.7;37.6
67893;DHT22;54688;52.376;16.744;2022-07-18T09:20:04;20.8;37.7
67893;DHT22;54688;52.376;16.744;2022-07-18T09:23:11;20.9;37.3
67893;DHT22;54688;52.376;16.744;2022-07-18T09:26:33;21;37.3
67893;DHT22;54688;52.376;16.744;2022-07-18T09:29:40;21.2;37.1
67893;DHT22;54688;52.376;16.744;2022-07-18T09:32:44;21.4;38
67893;DHT22;54688;52.376;16.744;2022-07-18T09:35:49;21.6;37.3
67893;DHT22;54688;52.376;16.744;2022-07-18T09:38:53;21.6;36.8
67893;DHT22;54688;52.376;16.744;2022-07-18T09:42:11;21.7;36.9
67893;DHT22;54688;52.376;16.744;2022-07-18T09:45:14;21.8;35.5
67893;DHT22;54688;52.376;16.744;2022-07-18T09:51:16;21.9;34.6
67893;DHT22;54688;52.376;16.744;2022-07-18T09:54:18;22;35.9
67893;DHT22;54688;52.376;16.744;2022-07-18T09:57:23;22.2;35.9
67893;DHT22;54688;52.376;16.744;2022-07-18T10:00:27;22.2;35.2
67893;DHT22;54688;52.376;16.744;2022-07-18T10:03:30;22.3;35.6
67893;DHT22;54688;52.376;16.744;2022-07-18T10:06:33;22.3;35
67893;DHT22;54688;52.376;16.744;2022-07-18T10:09:37;22.4;35
67893;DHT22;54688;52.376;16.744;2022-07-18T10:12:40;22.4;35.6
67893;DHT22;54688;52.376;16.744;2022-07-18T10:15:43;22.5;34.5
67893;DHT22;54688;52.376;16.744;2022-07-18T10:18:46;22.6;35.3
67893;DHT22;54688;52.376;16.744;2022-07-18T10:21:50;22.7;34.7
67893;DHT22;54688;52.376;16.744;2022-07-18T10:24:52;22.8;33.7
67893;DHT22;54688;52.376;16.744;2022-07-18T10:28:01;22.8;34.9
67893;DHT22;54688;52.376;16.744;2022-07-18T10:31:14;22.9;33
67893;DHT22;54688;52.376;16.744;2022-07-18T10:34:20;22.9;34.2
67893;DHT22;54688;52.376;16.744;2022-07-18T10:37:31;23;34
67893;DHT22;54688;52.376;16.744;2022-07-18T10:40:34;23;34.7
67893;DHT22;54688;52.376;16.744;2022-07-18T10:43:39;23;35.1
67893;DHT22;54688;52.376;16.744;2022-07-18T10:47:15;23.1;34.5
67893;DHT22;54688;52.376;16.744;2022-07-18T10:50:18;23.1;34.2
67893;DHT22;54688;52.376;16.744;2022-07-18T10:56:22;23.2;33.6
67893;DHT22;54688;52.376;16.744;2022-07-18T11:00:08;23.2;33.3
67893;DHT22;54688;52.376;16.744;2022-07-18T11:03:11;23.2;33.7
67893;DHT22;54688;52.376;16.744;2022-07-18T11:06:15;23.3;32.1
67893;DHT22;54688;52.376;16.744;2022-07-18T11:09:35;23.3;33.3
67893;DHT22;54688;52.376;16.744;2022-07-18T11:12:39;23.3;32.6
67893;DHT22;54688;52.376;16.744;2022-07-18T11:15:53;23.3;33.9
67893;DHT22;54688;52.376;16.744;2022-07-18T11:19:27;23.4;33
67893;DHT22;54688;52.376;16.744;2022-07-18T11:22:30;23.5;33.6
67893;DHT22;54688;52.376;16.744;2022-07-18T11:25:36;23.7;33.2
67893;DHT22;54688;52.376;16.744;2022-07-18T11:28:38;23.8;32.2
67893;DHT22;54688;52.376;16.744;2022-07-18T11:31:43;23.8;31.8
67893;DHT22;54688;52.376;16.744;2022-07-18T11:34:48;23.9;32.5
67893;DHT22;54688;52.376;16.744;2022-07-18T11:37:51;24;32
67893;DHT22;54688;52.376;16.744;2022-07-18T11:40:54;24.1;32.1
67893;DHT22;54688;52.376;16.744;2022-07-18T11:43:57;24.2;31.3
67893;DHT22;54688;52.376;16.744;2022-07-18T11:47:01;24.3;31.2
67893;DHT22;54688;52.376;16.744;2022-07-18T11:50:05;24.4;30.5
67893;DHT22;54688;52.376;16.744;2022-07-18T11:53:07;24.5;31.3
67893;DHT22;54688;52.376;16.744;2022-07-18T11:56:11;24.6;30.9
67893;DHT22;54688;52.376;16.744;2022-07-18T11:59:14;24.8;30.8
67893;DHT22;54688;52.376;16.744;2022-07-18T12:02:16;24.9;30.6
67893;DHT22;54688;52.376;16.744;2022-07-18T12:05:29;25;30.6
67893;DHT22;54688;52.376;16.744;2022-07-18T12:08:33;25.1;30.2
67893;DHT22;54688;52.376;16.744;2022-07-18T12:11:36;25.2;30
67893;DHT22;54688;52.376;16.744;2022-07-18T12:14:39;25.4;29.9
67893;DHT22;54688;52.376;16.744;2022-07-18T12:17:42;25.6;29.5
67893;DHT22;54688;52.376;16.744;2022-07-18T12:20:47;25.7;29.2
67893;DHT22;54688;52.376;16.744;2022-07-18T12:24:17;25.8;30
67893;DHT22;54688;52.376;16.744;2022-07-18T12:27:21;26.2;29.1
67893;DHT22;54688;52.376;16.744;2022-07-18T12:30:25;26.4;28.6
67893;DHT22;54688;52.376;16.744;2022-07-18T12:33:28;26.6;28.4
67893;DHT22;54688;52.376;16.744;2022-07-18T12:36:30;26.8;28.2
67893;DHT22;54688;52.376;16.744;2022-07-18T12:39:33;27.1;28.2
67893;DHT22;54688;52.376;16.744;2022-07-18T12:42:37;27.3;27.5
67893;DHT22;54688;52.376;16.744;2022-07-18T12:45:41;27.3;27.2
67893;DHT22;54688;52.376;16.744;2022-07-18T12:48:44;27.4;27.2
67893;DHT22;54688;52.376;16.744;2022-07-18T12:51:47;27.6;27.2
67893;DHT22;54688;52.376;16.744;2022-07-18T12:54:49;27.8;27.4
67893;DHT22;54688;52.376;16.744;2022-07-18T12:57:52;28;26.6
67893;DHT22;54688;52.376;16.744;2022-07-18T13:00:55;27.9;26.4
67893;DHT22;54688;52.376;16.744;2022-07-18T13:03:57;27.9;27.5
67893;DHT22;54688;52.376;16.744;2022-07-18T13:09:58;28.3;26.8
67893;DHT22;54688;52.376;16.744;2022-07-18T13:13:01;28.5;26.5
67893;DHT22;54688;52.376;16.744;2022-07-18T13:16:04;28.6;26.4
67893;DHT22;54688;52.376;16.744;2022-07-18T13:19:06;28.8;25.5
67893;DHT22;54688;52.376;16.744;2022-07-18T13:22:08;29.2;26
67893;DHT22;54688;52.376;16.744;2022-07-18T13:25:12;29.5;25.6
67893;DHT22;54688;52.376;16.744;2022-07-18T13:28:14;29.7;25.1
67893;DHT22;54688;52.376;16.744;2022-07-18T13:31:16;29.6;25.5
67893;DHT22;54688;52.376;16.744;2022-07-18T13:34:19;29.7;25.3
67893;DHT22;54688;52.376;16.744;2022-07-18T13:37:21;29.7;25.2
67893;DHT22;54688;52.376;16.744;2022-07-18T13:40:23;29.9;25.2
67893;DHT22;54688;52.376;16.744;2022-07-18T13:43:25;30.1;24.2
67893;DHT22;54688;52.376;16.744;2022-07-18T13:46:28;30;24.3
67893;DHT22;54688;52.376;16.744;2022-07-18T13:49:30;29.8;24.6
67893;DHT22;54688;52.376;16.744;2022-07-18T13:52:33;29.9;24.4
67893;DHT22;54688;52.376;16.744;2022-07-18T13:55:35;29.9;24.5
67893;DHT22;54688;52.376;16.744;2022-07-18T13:58:37;30.2;24.7
67893;DHT22;54688;52.376;16.744;2022-07-18T14:01:40;30.4;24.1
67893;DHT22;54688;52.376;16.744;2022-07-18T14:04:43;30.3;23.9
67893;DHT22;54688;52.376;16.744;2022-07-18T14:07:45;30.2;23.8
67893;DHT22;54688;52.376;16.744;2022-07-18T14:10:47;30.1;23.9
67893;DHT22;54688;52.376;16.744;2022-07-18T14:13:50;30;24.2
67893;DHT22;54688;52.376;16.744;2022-07-18T14:16:52;29.9;25.1
67893;DHT22;54688;52.376;16.744;2022-07-18T14:19:55;30;24.3
67893;DHT22;54688;52.376;16.744;2022-07-18T14:22:57;30;24.5
67893;DHT22;54688;52.376;16.744;2022-07-18T14:26:00;30.2;24.7
67893;DHT22;54688;52.376;16.744;2022-07-18T14:29:03;30.5;24.8
67893;DHT22;54688;52.376;16.744;2022-07-18T14:32:05;30.8;24.3
67893;DHT22;54688;52.376;16.744;2022-07-18T14:35:08;31.3;23.9
67893;DHT22;54688;52.376;16.744;2022-07-18T14:38:11;31.4;23.3
67893;DHT22;54688;52.376;16.744;2022-07-18T14:41:14;31.4;23.1
67893;DHT22;54688;52.376;16.744;2022-07-18T14:44:16;31.4;23.2
67893;DHT22;54688;52.376;16.744;2022-07-18T14:47:19;31.5;23.8
67893;DHT22;54688;52.376;16.744;2022-07-18T14:50:21;31.7;22.6
67893;DHT22;54688;52.376;16.744;2022-07-18T14:53:23;31.8;22.9
67893;DHT22;54688;52.376;16.744;2022-07-18T14:59:25;31.6;22.8
67893;DHT22;54688;52.376;16.744;2022-07-18T15:02:28;31.4;22.9
67893;DHT22;54688;52.376;16.744;2022-07-18T15:05:30;31.3;23.3
67893;DHT22;54688;52.376;16.744;2022-07-18T15:08:32;31.2;23
67893;DHT22;54688;52.376;16.744;2022-07-18T15:11:35;30.9;23.2
67893;DHT22;54688;52.376;16.744;2022-07-18T15:14:37;30.7;23.6
67893;DHT22;54688;52.376;16.744;2022-07-18T15:17:39;30.6;23.8
67893;DHT22;54688;52.376;16.744;2022-07-18T15:20:42;30.5;23.9
67893;DHT22;54688;52.376;16.744;2022-07-18T15:23:45;30.2;24
67893;DHT22;54688;52.376;16.744;2022-07-18T15:26:48;29.9;24.3
67893;DHT22;54688;52.376;16.744;2022-07-18T15:29:50;29.7;24.7
67893;DHT22;54688;52.376;16.744;2022-07-18T15:32:53;29.6;24.9
67893;DHT22;54688;52.376;16.744;2022-07-18T15:35:55;29.6;24.9
67893;DHT22;54688;52.376;16.744;2022-07-18T15:38:58;29.5;24.8
67893;DHT22;54688;52.376;16.744;2022-07-18T15:42:00;29.3;24.9
67893;DHT22;54688;52.376;16.744;2022-07-18T15:45:04;29;25.3
67893;DHT22;54688;52.376;16.744;2022-07-18T15:48:07;28.9;25.2
67893;DHT22;54688;52.376;16.744;2022-07-18T15:51:09;28.7;25.2
67893;DHT22;54688;52.376;16.744;2022-07-18T15:54:11;28.5;25.6
67893;DHT22;54688;52.376;16.744;2022-07-18T15:57:14;28.3;25.7
67893;DHT22;54688;52.376;16.744;2022-07-18T16:00:16;28;26.1
67893;DHT22;54688;52.376;16.744;2022-07-18T16:03:18;27.8;26.2
67893;DHT22;54688;52.376;16.744;2022-07-18T16:06:21;27.6;26.3
67893;DHT22;54688;52.376;16.744;2022-07-18T16:09:23;27.5;26.4
67893;DHT22;54688;52.376;16.744;2022-07-18T16:12:25;27.5;26.7
67893;DHT22;54688;52.376;16.744;2022-07-18T16:15:28;27.5;26.8
67893;DHT22;54688;52.376;16.744;2022-07-18T16:18:30;27.3;26.4
67893;DHT22;54688;52.376;16.744;2022-07-18T16:21:32;27.2;26.5
67893;DHT22;54688;52.376;16.744;2022-07-18T16:24:35;27.2;26.6
67893;DHT22;54688;52.376;16.744;2022-07-18T16:27:38;27;27
67893;DHT22;54688;52.376;16.744;2022-07-18T16:30:41;26.8;26.5
67893;DHT22;54688;52.376;16.744;2022-07-18T16:33:43;26.6;26.8
67893;DHT22;54688;52.376;16.744;2022-07-18T16:36:45;26.4;27
67893;DHT22;54688;52.376;16.744;2022-07-18T16:39:48;26.3;27
67893;DHT22;54688;52.376;16.744;2022-07-18T16:42:50;26.1;27.3
67893;DHT22;54688;52.376;16.744;2022-07-18T16:45:54;26.1;27.9
67893;DHT22;54688;52.376;16.744;2022-07-18T16:48:56;25.9;27.8
67893;DHT22;54688;52.376;16.744;2022-07-18T16:51:59;25.8;28
67893;DHT22;54688;52.376;16.744;2022-07-18T16:55:04;25.8;28.2
67893;DHT22;54688;52.376;16.744;2022-07-18T16:58:07;25.7;28.5
67893;DHT22;54688;52.376;16.744;2022-07-18T17:01:10;25.7;28.4
67893;DHT22;54688;52.376;16.744;2022-07-18T17:04:13;25.6;28.7
67893;DHT22;54688;52.376;16.744;2022-07-18T17:07:15;25.5;28.9
67893;DHT22;54688;52.376;16.744;2022-07-18T17:10:17;25.5;29.3
67893;DHT22;54688;52.376;16.744;2022-07-18T17:13:21;25.4;29.9
67893;DHT22;54688;52.376;16.744;2022-07-18T17:16:23;25.3;29.5
67893;DHT22;54688;52.376;16.744;2022-07-18T17:19:27;25.3;30.3
67893;DHT22;54688;52.376;16.744;2022-07-18T17:22:29;25.2;29.9
67893;DHT22;54688;52.376;16.744;2022-07-18T17:25:32;25.1;29.7
67893;DHT22;54688;52.376;16.744;2022-07-18T17:28:36;25.1;30
67893;DHT22;54688;52.376;16.744;2022-07-18T17:31:39;25;30.1
67893;DHT22;54688;52.376;16.744;2022-07-18T17:37:40;24.9;30.6
67893;DHT22;54688;52.376;16.744;2022-07-18T17:40:43;24.9;30.8
67893;DHT22;54688;52.376;16.744;2022-07-18T17:43:46;24.9;31.2
67893;DHT22;54688;52.376;16.744;2022-07-18T17:46:49;24.9;31
67893;DHT22;54688;52.376;16.744;2022-07-18T17:49:52;24.9;31.2
67893;DHT22;54688;52.376;16.744;2022-07-18T17:52:55;24.9;32
67893;DHT22;54688;52.376;16.744;2022-07-18T17:55:57;24.9;31.2
67893;DHT22;54688;52.376;16.744;2022-07-18T17:59:00;24.9;31
67893;DHT22;54688;52.376;16.744;2022-07-18T18:02:02;24.8;30.9
67893;DHT22;54688;52.376;16.744;2022-07-18T18:05:04;24.8;31.3
67893;DHT22;54688;52.376;16.744;2022-07-18T18:08:07;24.7;31.6
67893;DHT22;54688;52.376;16.744;2022-07-18T18:11:09;24.7;31.7
67893;DHT22;54688;52.376;16.744;2022-07-18T18:14:12;24.7;32
67893;DHT22;54688;52.376;16.744;2022-07-18T18:17:14;24.8;32.1
67893;DHT22;54688;52.376;16.744;2022-07-18T18:20:16;24.8;32
67893;DHT22;54688;52.376;16.744;2022-07-18T18:23:19;24.9;32
67893;DHT22;54688;52.376;16.744;2022-07-18T18:26:21;25;32.1
67893;DHT22;54688;52.376;16.744;2022-07-18T18:29:25;24.9;32.3
67893;DHT22;54688;52.376;16.744;2022-07-18T18:32:27;24.8;32.3
67893;DHT22;54688;52.376;16.744;2022-07-18T18:35:30;24.7;32.7
67893;DHT22;54688;52.376;16.744;2022-07-18T18:38:32;24.6;33
67893;DHT22;54688;52.376;16.744;2022-07-18T18:41:35;24.5;33.4
67893;DHT22;54688;52.376;16.744;2022-07-18T18:44:37;24.3;33.7
67893;DHT22;54688;52.376;16.744;2022-07-18T18:47:40;24.2;34.1
67893;DHT22;54688;52.376;16.744;2022-07-18T18:50:42;24.1;34.3
67893;DHT22;54688;52.376;16.744;2022-07-18T18:53:44;23.9;34.6
67893;DHT22;54688;52.376;16.744;2022-07-18T18:56:47;23.7;35
67893;DHT22;54688;52.376;16.744;2022-07-18T18:59:49;23.6;35.4
67893;DHT22;54688;52.376;16.744;2022-07-18T19:02:52;23.6;35.5
67893;DHT22;54688;52.376;16.744;2022-07-18T19:05:55;23.5;35.5
67893;DHT22;54688;52.376;16.744;2022-07-18T19:08:58;23.5;35.6
67893;DHT22;54688;52.376;16.744;2022-07-18T19:12:00;23.5;35.7
67893;DHT22;54688;52.376;16.744;2022-07-18T19:15:03;23.4;35.1
67893;DHT22;54688;52.376;16.744;2022-07-18T19:18:06;23.3;36.3
67893;DHT22;54688;52.376;16.744;2022-07-18T19:21:09;23.3;36.6
67893;DHT22;54688;52.376;16.744;2022-07-18T19:24:11;23.2;37
67893;DHT22;54688;52.376;16.744;2022-07-18T19:27:14;23.1;37.7
67893;DHT22;54688;52.376;16.744;2022-07-18T19:30:17;23;38
67893;DHT22;54688;52.376;16.744;2022-07-18T19:33:21;23;38.1
67893;DHT22;54688;52.376;16.744;2022-07-18T19:36:23;22.9;38.3
67893;DHT22;54688;52.376;16.744;2022-07-18T19:39:25;22.8;39.2
67893;DHT22;54688;52.376;16.744;2022-07-18T19:42:28;22.7;40.2
67893;DHT22;54688;52.376;16.744;2022-07-18T19:45:30;22.6;39.8
67893;DHT22;54688;52.376;16.744;2022-07-18T19:48:33;22.6;40.8
67893;DHT22;54688;52.376;16.744;2022-07-18T19:51:36;22.5;40
67893;DHT22;54688;52.376;16.744;2022-07-18T19:54:38;22.3;41
67893;DHT22;54688;52.376;16.744;2022-07-18T19:57:41;22.3;41.2
67893;DHT22;54688;52.376;16.744;2022-07-18T20:00:43;22.2;40.8
67893;DHT22;54688;52.376;16.744;2022-07-18T20:03:45;22.2;42.3
67893;DHT22;54688;52.376;16.744;2022-07-18T20:06:47;22.1;41.6
67893;DHT22;54688;52.376;16.744;2022-07-18T20:09:49;22;42
67893;DHT22;54688;52.376;16.744;2022-07-18T20:12:52;22;42.2
67893;DHT22;54688;52.376;16.744;2022-07-18T20:15:54;21.9;42.9